sensor_id;sensor_type;location;lat;lon;timestamp;P1;durP1;ratioP1;P2;durP2;ratioP2
33814;SDS011;20121;51.910;8.406;2023-04-24T00:02:20;1.47;;;0.87;;
33814;SDS011;20121;51.910;8.406;2023-04-24T00:04:47;0.80;;;0.60;;
33814;SDS011;20121;51.910;8.406;2023-04-24T00:07:13;1.23;;;0.60;;
33814;SDS011;20121;51.910;8.406;2023-04-24T00:09:42;1.13;;;0.60;;
33814;SDS011;20121;51.910;8.406;2023-04-24T00:12:08;0.70;;;0.60;;
33814;SDS011;20121;51.910;8.406;2023-04-24T00:14:35;0.68;;;0.60;;
33814;SDS011;20121;51.910;8.406;2023-04-24T00:17:00;4.70;;;0.60;;
33814;SDS011;20121;51.910;8.406;2023-04-24T00:19:30;0.70;;;0.60;;
33814;SDS011;20121;51.910;8.406;2023-04-24T00:21:56;1.02;;;0.80;;
33814;SDS011;20121;51.910;8.406;2023-04-24T00:24:21;0.70;;;0.70;;
33814;SDS011;20121;51.910;8.406;2023-04-24T00:26:47;0.70;;;0.70;;
33814;SDS011;20121;51.910;8.406;2023-04-24T00:29:12;0.77;;;0.60;;
33814;SDS011;20121;51.910;8.406;2023-04-24T00:31:38;0.70;;;0.70;;
33814;SDS011;20121;51.910;8.406;2023-04-24T00:34:04;0.85;;;0.80;;
33814;SDS011;20121;51.910;8.406;2023-04-24T00:36:30;0.80;;;0.70;;
33814;SDS011;20121;51.910;8.406;2023-04-24T00:38:57;0.80;;;0.80;;
33814;SDS011;20121;51.910;8.406;2023-04-24T00:41:22;0.70;;;0.70;;
33814;SDS011;20121;51.910;8.406;2023-04-24T00:43:50;1.02;;;0.93;;
33814;SDS011;20121;51.910;8.406;2023-04-24T00:46:16;0.70;;;0.70;;
33814;SDS011;20121;51.910;8.406;2023-04-24T00:48:42;1.20;;;1.10;;
33814;SDS011;20121;51.910;8.406;2023-04-24T00:51:08;1.00;;;0.90;;
33814;SDS011;20121;51.910;8.406;2023-04-24T00:53:34;0.70;;;0.70;;
33814;SDS011;20121;51.910;8.406;2023-04-24T00:55:59;1.50;;;0.97;;
33814;SDS011;20121;51.910;8.406;2023-04-24T00:58:25;0.70;;;0.70;;
33814;SDS011;20121;51.910;8.406;2023-04-24T01:00:52;1.90;;;0.73;;
33814;SDS011;20121;51.910;8.406;2023-04-24T01:03:21;2.55;;;1.10;;
33814;SDS011;20121;51.910;8.406;2023-04-24T01:05:48;0.60;;;0.50;;
33814;SDS011;20121;51.910;8.406;2023-04-24T01:08:15;1.65;;;1.00;;
33814;SDS011;20121;51.910;8.406;2023-04-24T01:10:41;0.70;;;0.63;;
33814;SDS011;20121;51.910;8.406;2023-04-24T01:13:07;0.77;;;0.67;;
33814;SDS011;20121;51.910;8.406;2023-04-24T01:15:34;2.03;;;0.80;;
33814;SDS011;20121;51.910;8.406;2023-04-24T01:18:00;1.00;;;0.73;;
33814;SDS011;20121;51.910;8.406;2023-04-24T01:20:25;0.70;;;0.67;;
33814;SDS011;20121;51.910;8.406;2023-04-24T01:22:51;0.60;;;0.50;;
33814;SDS011;20121;51.910;8.406;2023-04-24T01:25:19;0.77;;;0.77;;
33814;SDS011;20121;51.910;8.406;2023-04-24T01:27:45;0.87;;;0.60;;
33814;SDS011;20121;51.910;8.406;2023-04-24T01:30:11;2.17;;;0.93;;
33814;SDS011;20121;51.910;8.406;2023-04-24T01:32:38;0.70;;;0.70;;
33814;SDS011;20121;51.910;8.406;2023-04-24T01:35:05;1.77;;;0.70;;
33814;SDS011;20121;51.910;8.406;2023-04-24T01:37:31;0.70;;;0.60;;
33814;SDS011;20121;51.910;8.406;2023-04-24T01:39:58;0.85;;;0.70;;
33814;SDS011;20121;51.910;8.406;2023-04-24T01:42:24;0.80;;;0.80;;
33814;SDS011;20121;51.910;8.406;2023-04-24T01:44:49;0.80;;;0.60;;
33814;SDS011;20121;51.910;8.406;2023-04-24T01:47:16;0.68;;;0.68;;
33814;SDS011;20121;51.910;8.406;2023-04-24T01:49:42;0.70;;;0.60;;
33814;SDS011;20121;51.910;8.406;2023-04-24T01:52:07;0.70;;;0.70;;
33814;SDS011;20121;51.910;8.406;2023-04-24T01:54:33;0.80;;;0.80;;
33814;SDS011;20121;51.910;8.406;2023-04-24T01:56:59;0.63;;;0.60;;
33814;SDS011;20121;51.910;8.406;2023-04-24T01:59:26;0.63;;;0.63;;
33814;SDS011;20121;51.910;8.406;2023-04-24T02:01:53;0.63;;;0.57;;
33814;SDS011;20121;51.910;8.406;2023-04-24T02:04:19;0.80;;;0.70;;
33814;SDS011;20121;51.910;8.406;2023-04-24T02:06:44;0.80;;;0.67;;
33814;SDS011;20121;51.910;8.406;2023-04-24T02:09:10;0.70;;;0.67;;
33814;SDS011;20121;51.910;8.406;2023-04-24T02:11:36;1.10;;;1.00;;
33814;SDS011;20121;51.910;8.406;2023-04-24T02:14:02;0.70;;;0.60;;
33814;SDS011;20121;51.910;8.406;2023-04-24T02:16:28;0.80;;;0.60;;
33814;SDS011;20121;51.910;8.406;2023-04-24T02:18:57;0.60;;;0.60;;
33814;SDS011;20121;51.910;8.406;2023-04-24T02:21:22;0.90;;;0.70;;
33814;SDS011;20121;51.910;8.406;2023-04-24T02:23:48;1.10;;;0.80;;
33814;SDS011;20121;51.910;8.406;2023-04-24T02:26:14;0.77;;;0.70;;
33814;SDS011;20121;51.910;8.406;2023-04-24T02:28:40;0.60;;;0.60;;
33814;SDS011;20121;51.910;8.406;2023-04-24T02:31:05;0.70;;;0.60;;
33814;SDS011;20121;51.910;8.406;2023-04-24T02:33:31;1.03;;;0.93;;
33814;SDS011;20121;51.910;8.406;2023-04-24T02:35:57;0.90;;;0.90;;
33814;SDS011;20121;51.910;8.406;2023-04-24T02:38:23;1.20;;;1.10;;
33814;SDS011;20121;51.910;8.406;2023-04-24T02:40:48;0.70;;;0.70;;
33814;SDS011;20121;51.910;8.406;2023-04-24T02:43:14;0.80;;;0.73;;
33814;SDS011;20121;51.910;8.406;2023-04-24T02:45:39;2.50;;;1.37;;
33814;SDS011;20121;51.910;8.406;2023-04-24T02:48:05;0.70;;;0.70;;
33814;SDS011;20121;51.910;8.406;2023-04-24T02:50:31;0.97;;;0.83;;
33814;SDS011;20121;51.910;8.406;2023-04-24T02:52:57;0.80;;;0.80;;
33814;SDS011;20121;51.910;8.406;2023-04-24T02:55:22;0.80;;;0.80;;
33814;SDS011;20121;51.910;8.406;2023-04-24T02:57:48;0.80;;;0.63;;
33814;SDS011;20121;51.910;8.406;2023-04-24T03:00:13;0.80;;;0.80;;
33814;SDS011;20121;51.910;8.406;2023-04-24T03:02:39;0.80;;;0.80;;
33814;SDS011;20121;51.910;8.406;2023-04-24T03:05:05;0.70;;;0.70;;
33814;SDS011;20121;51.910;8.406;2023-04-24T03:07:31;1.00;;;0.90;;
33814;SDS011;20121;51.910;8.406;2023-04-24T03:09:57;0.80;;;0.80;;
33814;SDS011;20121;51.910;8.406;2023-04-24T03:12:23;0.80;;;0.80;;
33814;SDS011;20121;51.910;8.406;2023-04-24T03:14:49;0.97;;;0.90;;
33814;SDS011;20121;51.910;8.406;2023-04-24T03:17:14;0.90;;;0.90;;
33814;SDS011;20121;51.910;8.406;2023-04-24T03:19:40;1.10;;;1.00;;
33814;SDS011;20121;51.910;8.406;2023-04-24T03:22:06;0.80;;;0.80;;
33814;SDS011;20121;51.910;8.406;2023-04-24T03:24:31;1.93;;;0.97;;
33814;SDS011;20121;51.910;8.406;2023-04-24T03:26:57;1.00;;;0.90;;
33814;SDS011;20121;51.910;8.406;2023-04-24T03:29:23;0.87;;;0.87;;
33814;SDS011;20121;51.910;8.406;2023-04-24T03:31:48;2.60;;;1.20;;
33814;SDS011;20121;51.910;8.406;2023-04-24T03:34:14;7.40;;;1.10;;
33814;SDS011;20121;51.910;8.406;2023-04-24T03:36:39;0.77;;;0.77;;
33814;SDS011;20121;51.910;8.406;2023-04-24T03:39:05;1.20;;;1.10;;
33814;SDS011;20121;51.910;8.406;2023-04-24T03:41:31;1.83;;;1.40;;
33814;SDS011;20121;51.910;8.406;2023-04-24T03:43:56;1.07;;;0.97;;
33814;SDS011;20121;51.910;8.406;2023-04-24T03:46:22;1.70;;;1.50;;
33814;SDS011;20121;51.910;8.406;2023-04-24T03:48:47;1.17;;;1.07;;
33814;SDS011;20121;51.910;8.406;2023-04-24T03:51:13;1.10;;;1.00;;
33814;SDS011;20121;51.910;8.406;2023-04-24T03:53:38;0.70;;;0.70;;
33814;SDS011;20121;51.910;8.406;2023-04-24T03:56:04;2.23;;;1.30;;
33814;SDS011;20121;51.910;8.406;2023-04-24T03:58:30;1.30;;;1.20;;
33814;SDS011;20121;51.910;8.406;2023-04-24T04:00:56;1.50;;;1.40;;
33814;SDS011;20121;51.910;8.406;2023-04-24T04:03:23;1.55;;;1.45;;
33814;SDS011;20121;51.910;8.406;2023-04-24T04:05:48;1.30;;;1.13;;
33814;SDS011;20121;51.910;8.406;2023-04-24T04:08:14;1.30;;;1.20;;
33814;SDS011;20121;51.910;8.406;2023-04-24T04:10:40;1.73;;;1.25;;
33814;SDS011;20121;51.910;8.406;2023-04-24T04:13:06;1.10;;;1.00;;
33814;SDS011;20121;51.910;8.406;2023-04-24T04:15:31;1.27;;;1.17;;
33814;SDS011;20121;51.910;8.406;2023-04-24T04:17:57;1.20;;;1.10;;
33814;SDS011;20121;51.910;8.406;2023-04-24T04:20:23;2.07;;;1.70;;
33814;SDS011;20121;51.910;8.406;2023-04-24T04:22:48;1.60;;;1.30;;
33814;SDS011;20121;51.910;8.406;2023-04-24T04:25:14;1.63;;;1.27;;
33814;SDS011;20121;51.910;8.406;2023-04-24T04:27:40;1.37;;;1.27;;
33814;SDS011;20121;51.910;8.406;2023-04-24T04:30:07;1.15;;;1.05;;
33814;SDS011;20121;51.910;8.406;2023-04-24T04:32:36;3.25;;;1.63;;
33814;SDS011;20121;51.910;8.406;2023-04-24T04:35:02;2.35;;;1.42;;
33814;SDS011;20121;51.910;8.406;2023-04-24T04:37:31;1.60;;;1.15;;
33814;SDS011;20121;51.910;8.406;2023-04-24T04:40:01;1.33;;;1.20;;
33814;SDS011;20121;51.910;8.406;2023-04-24T04:42:31;2.50;;;2.30;;
33814;SDS011;20121;51.910;8.406;2023-04-24T04:44:57;2.50;;;2.30;;
33814;SDS011;20121;51.910;8.406;2023-04-24T04:47:23;2.60;;;2.40;;
33814;SDS011;20121;51.910;8.406;2023-04-24T04:49:49;3.50;;;2.30;;
33814;SDS011;20121;51.910;8.406;2023-04-24T04:52:16;2.97;;;2.40;;
33814;SDS011;20121;51.910;8.406;2023-04-24T04:54:42;4.03;;;2.80;;
33814;SDS011;20121;51.910;8.406;2023-04-24T04:57:08;5.90;;;3.13;;
33814;SDS011;20121;51.910;8.406;2023-04-24T04:59:34;3.10;;;2.70;;
33814;SDS011;20121;51.910;8.406;2023-04-24T05:02:00;4.88;;;3.10;;
33814;SDS011;20121;51.910;8.406;2023-04-24T05:04:25;4.30;;;3.43;;
33814;SDS011;20121;51.910;8.406;2023-04-24T05:06:51;2.97;;;2.73;;
33814;SDS011;20121;51.910;8.406;2023-04-24T05:09:17;4.28;;;2.95;;
33814;SDS011;20121;51.910;8.406;2023-04-24T05:11:43;4.57;;;3.30;;
33814;SDS011;20121;51.910;8.406;2023-04-24T05:14:08;3.37;;;3.07;;
33814;SDS011;20121;51.910;8.406;2023-04-24T05:16:34;6.13;;;2.97;;
33814;SDS011;20121;51.910;8.406;2023-04-24T05:19:01;3.88;;;3.58;;
33814;SDS011;20121;51.910;8.406;2023-04-24T05:21:27;4.77;;;3.00;;
33814;SDS011;20121;51.910;8.406;2023-04-24T05:23:53;11.50;;;3.90;;
33814;SDS011;20121;51.910;8.406;2023-04-24T05:26:18;8.37;;;3.97;;
33814;SDS011;20121;51.910;8.406;2023-04-24T05:28:44;4.07;;;3.10;;
33814;SDS011;20121;51.910;8.406;2023-04-24T05:31:10;5.03;;;4.53;;
33814;SDS011;20121;51.910;8.406;2023-04-24T05:33:37;5.65;;;3.38;;
33814;SDS011;20121;51.910;8.406;2023-04-24T05:36:03;4.00;;;3.70;;
33814;SDS011;20121;51.910;8.406;2023-04-24T05:38:30;4.55;;;3.30;;
33814;SDS011;20121;51.910;8.406;2023-04-24T05:40:56;5.97;;;4.27;;
33814;SDS011;20121;51.910;8.406;2023-04-24T05:43:21;6.00;;;3.10;;
33814;SDS011;20121;51.910;8.406;2023-04-24T05:45:47;10.83;;;4.47;;
33814;SDS011;20121;51.910;8.406;2023-04-24T05:48:12;5.30;;;4.03;;
33814;SDS011;20121;51.910;8.406;2023-04-24T05:50:38;6.33;;;4.70;;
33814;SDS011;20121;51.910;8.406;2023-04-24T05:53:04;6.43;;;3.65;;
33814;SDS011;20121;51.910;8.406;2023-04-24T05:55:31;5.38;;;4.32;;
33814;SDS011;20121;51.910;8.406;2023-04-24T05:57:57;5.50;;;4.93;;
33814;SDS011;20121;51.910;8.406;2023-04-24T06:00:24;5.20;;;4.10;;
33814;SDS011;20121;51.910;8.406;2023-04-24T06:02:50;5.15;;;3.58;;
33814;SDS011;20121;51.910;8.406;2023-04-24T06:05:17;4.53;;;3.75;;
33814;SDS011;20121;51.910;8.406;2023-04-24T06:07:43;4.50;;;3.33;;
33814;SDS011;20121;51.910;8.406;2023-04-24T06:10:09;5.27;;;3.97;;
33814;SDS011;20121;51.910;8.406;2023-04-24T06:12:35;5.45;;;3.42;;
33814;SDS011;20121;51.910;8.406;2023-04-24T06:15:01;6.15;;;4.07;;
33814;SDS011;20121;51.910;8.406;2023-04-24T06:17:27;7.95;;;3.80;;
33814;SDS011;20121;51.910;8.406;2023-04-24T06:19:53;4.27;;;3.50;;
33814;SDS011;20121;51.910;8.406;2023-04-24T06:22:18;6.10;;;3.90;;
33814;SDS011;20121;51.910;8.406;2023-04-24T06:24:44;10.97;;;4.70;;
33814;SDS011;20121;51.910;8.406;2023-04-24T06:27:10;3.67;;;3.37;;
33814;SDS011;20121;51.910;8.406;2023-04-24T06:29:36;5.53;;;3.30;;
33814;SDS011;20121;51.910;8.406;2023-04-24T06:32:01;5.40;;;3.78;;
33814;SDS011;20121;51.910;8.406;2023-04-24T06:34:27;6.57;;;2.97;;
33814;SDS011;20121;51.910;8.406;2023-04-24T06:36:53;4.60;;;4.10;;
33814;SDS011;20121;51.910;8.406;2023-04-24T06:39:20;5.38;;;4.28;;
33814;SDS011;20121;51.910;8.406;2023-04-24T06:41:45;7.57;;;3.80;;
33814;SDS011;20121;51.910;8.406;2023-04-24T06:44:11;4.33;;;3.57;;
33814;SDS011;20121;51.910;8.406;2023-04-24T06:46:36;5.63;;;5.10;;
33814;SDS011;20121;51.910;8.406;2023-04-24T06:49:02;4.17;;;3.40;;
33814;SDS011;20121;51.910;8.406;2023-04-24T06:51:28;4.20;;;3.10;;
33814;SDS011;20121;51.910;8.406;2023-04-24T06:53:54;4.40;;;4.00;;
33814;SDS011;20121;51.910;8.406;2023-04-24T06:56:21;6.05;;;4.90;;
33814;SDS011;20121;51.910;8.406;2023-04-24T06:58:47;3.53;;;3.22;;
33814;SDS011;20121;51.910;8.406;2023-04-24T07:01:13;7.33;;;4.60;;
33814;SDS011;20121;51.910;8.406;2023-04-24T07:03:38;4.63;;;3.77;;
33814;SDS011;20121;51.910;8.406;2023-04-24T07:06:04;6.30;;;4.47;;
33814;SDS011;20121;51.910;8.406;2023-04-24T07:08:31;5.47;;;3.00;;
33814;SDS011;20121;51.910;8.406;2023-04-24T07:10:58;3.63;;;2.90;;
33814;SDS011;20121;51.910;8.406;2023-04-24T07:13:24;3.10;;;2.80;;
33814;SDS011;20121;51.910;8.406;2023-04-24T07:15:50;3.93;;;3.40;;
33814;SDS011;20121;51.910;8.406;2023-04-24T07:18:17;4.65;;;2.92;;
33814;SDS011;20121;51.910;8.406;2023-04-24T07:20:43;2.73;;;2.53;;
33814;SDS011;20121;51.910;8.406;2023-04-24T07:23:09;5.53;;;4.10;;
33814;SDS011;20121;51.910;8.406;2023-04-24T07:25:35;4.33;;;3.33;;
33814;SDS011;20121;51.910;8.406;2023-04-24T07:28:01;2.60;;;2.40;;
33814;SDS011;20121;51.910;8.406;2023-04-24T07:30:27;3.00;;;2.80;;
33814;SDS011;20121;51.910;8.406;2023-04-24T07:32:54;3.88;;;2.75;;
33814;SDS011;20121;51.910;8.406;2023-04-24T07:35:20;11.90;;;3.03;;
33814;SDS011;20121;51.910;8.406;2023-04-24T07:37:46;4.60;;;2.42;;
33814;SDS011;20121;51.910;8.406;2023-04-24T07:40:12;3.58;;;2.97;;
33814;SDS011;20121;51.910;8.406;2023-04-24T07:42:38;2.40;;;2.20;;
33814;SDS011;20121;51.910;8.406;2023-04-24T07:45:04;2.70;;;2.50;;
33814;SDS011;20121;51.910;8.406;2023-04-24T07:47:31;2.38;;;2.03;;
33814;SDS011;20121;51.910;8.406;2023-04-24T07:49:57;3.58;;;2.97;;
33814;SDS011;20121;51.910;8.406;2023-04-24T07:52:23;5.05;;;2.30;;
33814;SDS011;20121;51.910;8.406;2023-04-24T07:54:49;4.17;;;2.60;;
33814;SDS011;20121;51.910;8.406;2023-04-24T07:57:15;4.23;;;2.70;;
33814;SDS011;20121;51.910;8.406;2023-04-24T07:59:41;5.88;;;3.15;;
33814;SDS011;20121;51.910;8.406;2023-04-24T08:02:07;2.10;;;1.90;;
33814;SDS011;20121;51.910;8.406;2023-04-24T08:04:33;3.37;;;2.37;;
33814;SDS011;20121;51.910;8.406;2023-04-24T08:06:58;3.90;;;2.27;;
33814;SDS011;20121;51.910;8.406;2023-04-24T08:09:24;2.83;;;2.10;;
33814;SDS011;20121;51.910;8.406;2023-04-24T08:11:50;3.67;;;2.70;;
33814;SDS011;20121;51.910;8.406;2023-04-24T08:14:15;2.80;;;2.43;;
33814;SDS011;20121;51.910;8.406;2023-04-24T08:16:41;2.50;;;2.10;;
33814;SDS011;20121;51.910;8.406;2023-04-24T08:19:07;2.10;;;1.80;;
33814;SDS011;20121;51.910;8.406;2023-04-24T08:21:32;1.60;;;1.50;;
33814;SDS011;20121;51.910;8.406;2023-04-24T08:23:58;2.87;;;2.17;;
33814;SDS011;20121;51.910;8.406;2023-04-24T08:26:24;2.50;;;2.33;;
33814;SDS011;20121;51.910;8.406;2023-04-24T08:28:49;1.43;;;1.33;;
33814;SDS011;20121;51.910;8.406;2023-04-24T08:31:15;1.40;;;1.30;;
33814;SDS011;20121;51.910;8.406;2023-04-24T08:33:41;2.60;;;1.67;;
33814;SDS011;20121;51.910;8.406;2023-04-24T08:36:09;1.38;;;1.27;;
33814;SDS011;20121;51.910;8.406;2023-04-24T08:38:35;1.63;;;1.53;;
33814;SDS011;20121;51.910;8.406;2023-04-24T08:41:01;3.73;;;2.20;;
33814;SDS011;20121;51.910;8.406;2023-04-24T08:43:27;1.95;;;1.60;;
33814;SDS011;20121;51.910;8.406;2023-04-24T08:45:55;1.75;;;1.65;;
33814;SDS011;20121;51.910;8.406;2023-04-24T08:48:22;1.70;;;1.35;;
33814;SDS011;20121;51.910;8.406;2023-04-24T08:50:49;2.03;;;1.63;;
33814;SDS011;20121;51.910;8.406;2023-04-24T08:53:16;1.70;;;1.60;;
33814;SDS011;20121;51.910;8.406;2023-04-24T08:55:43;1.30;;;1.20;;
33814;SDS011;20121;51.910;8.406;2023-04-24T08:58:11;1.38;;;1.27;;
33814;SDS011;20121;51.910;8.406;2023-04-24T09:00:38;1.35;;;1.25;;
33814;SDS011;20121;51.910;8.406;2023-04-24T09:03:09;1.50;;;1.40;;
33814;SDS011;20121;51.910;8.406;2023-04-24T09:05:35;1.65;;;1.40;;
33814;SDS011;20121;51.910;8.406;2023-04-24T09:08:01;1.30;;;1.20;;
33814;SDS011;20121;51.910;8.406;2023-04-24T09:10:28;1.25;;;1.15;;
33814;SDS011;20121;51.910;8.406;2023-04-24T09:12:55;1.17;;;1.08;;
33814;SDS011;20121;51.910;8.406;2023-04-24T09:15:24;1.67;;;1.55;;
33814;SDS011;20121;51.910;8.406;2023-04-24T09:17:49;1.70;;;1.60;;
33814;SDS011;20121;51.910;8.406;2023-04-24T09:20:15;1.10;;;1.00;;
33814;SDS011;20121;51.910;8.406;2023-04-24T09:22:44;1.20;;;1.10;;
33814;SDS011;20121;51.910;8.406;2023-04-24T09:25:10;1.65;;;1.20;;
33814;SDS011;20121;51.910;8.406;2023-04-24T09:27:41;3.25;;;2.63;;
33814;SDS011;20121;51.910;8.406;2023-04-24T09:30:10;1.80;;;1.48;;
33814;SDS011;20121;51.910;8.406;2023-04-24T09:32:36;2.08;;;1.63;;
33814;SDS011;20121;51.910;8.406;2023-04-24T09:35:12;1.17;;;1.07;;
33814;SDS011;20121;51.910;8.406;2023-04-24T09:37:46;0.95;;;0.93;;
33814;SDS011;20121;51.910;8.406;2023-04-24T09:40:20;2.28;;;1.60;;
33814;SDS011;20121;51.910;8.406;2023-04-24T09:42:54;1.55;;;1.45;;
33814;SDS011;20121;51.910;8.406;2023-04-24T09:45:35;0.82;;;0.75;;
33814;SDS011;20121;51.910;8.406;2023-04-24T09:48:02;1.33;;;1.23;;
33814;SDS011;20121;51.910;8.406;2023-04-24T09:50:29;3.83;;;1.00;;
33814;SDS011;20121;51.910;8.406;2023-04-24T09:53:01;1.10;;;1.00;;
33814;SDS011;20121;51.910;8.406;2023-04-24T09:55:28;0.90;;;0.90;;
33814;SDS011;20121;51.910;8.406;2023-04-24T09:57:58;1.00;;;0.93;;
33814;SDS011;20121;51.910;8.406;2023-04-24T10:00:31;1.35;;;1.25;;
33814;SDS011;20121;51.910;8.406;2023-04-24T10:02:58;0.90;;;0.90;;
33814;SDS011;20121;51.910;8.406;2023-04-24T10:05:31;1.98;;;1.38;;
33814;SDS011;20121;51.910;8.406;2023-04-24T10:08:02;0.80;;;0.80;;
33814;SDS011;20121;51.910;8.406;2023-04-24T10:10:30;5.82;;;1.17;;
33814;SDS011;20121;51.910;8.406;2023-04-24T10:12:57;1.25;;;1.15;;
33814;SDS011;20121;51.910;8.406;2023-04-24T10:15:24;0.60;;;0.60;;
33814;SDS011;20121;51.910;8.406;2023-04-24T10:17:51;0.80;;;0.70;;
33814;SDS011;20121;51.910;8.406;2023-04-24T10:20:20;1.27;;;1.17;;
33814;SDS011;20121;51.910;8.406;2023-04-24T10:22:55;0.80;;;0.80;;
33814;SDS011;20121;51.910;8.406;2023-04-24T10:25:23;9.20;;;1.63;;
33814;SDS011;20121;51.910;8.406;2023-04-24T10:27:51;0.90;;;0.90;;
33814;SDS011;20121;51.910;8.406;2023-04-24T10:30:18;1.17;;;1.08;;
33814;SDS011;20121;51.910;8.406;2023-04-24T10:32:44;1.15;;;1.05;;
33814;SDS011;20121;51.910;8.406;2023-04-24T10:35:14;0.87;;;0.80;;
33814;SDS011;20121;51.910;8.406;2023-04-24T10:37:42;1.63;;;1.52;;
33814;SDS011;20121;51.910;8.406;2023-04-24T10:40:25;1.30;;;1.20;;
33814;SDS011;20121;51.910;8.406;2023-04-24T10:42:58;1.90;;;1.80;;
33814;SDS011;20121;51.910;8.406;2023-04-24T10:45:26;1.40;;;1.30;;
33814;SDS011;20121;51.910;8.406;2023-04-24T10:47:59;0.70;;;0.63;;
33814;SDS011;20121;51.910;8.406;2023-04-24T10:50:50;1.20;;;0.90;;
33814;SDS011;20121;51.910;8.406;2023-04-24T10:53:18;1.10;;;0.90;;
33814;SDS011;20121;51.910;8.406;2023-04-24T10:55:52;0.70;;;0.63;;
33814;SDS011;20121;51.910;8.406;2023-04-24T10:58:35;1.25;;;1.10;;
33814;SDS011;20121;51.910;8.406;2023-04-24T11:01:30;1.33;;;0.93;;
33814;SDS011;20121;51.910;8.406;2023-04-24T11:04:01;1.00;;;0.90;;
33814;SDS011;20121;51.910;8.406;2023-04-24T11:06:28;2.67;;;1.25;;
33814;SDS011;20121;51.910;8.406;2023-04-24T11:08:59;1.20;;;1.10;;
33814;SDS011;20121;51.910;8.406;2023-04-24T11:11:34;0.90;;;0.90;;
33814;SDS011;20121;51.910;8.406;2023-04-24T11:14:01;1.63;;;1.27;;
33814;SDS011;20121;51.910;8.406;2023-04-24T11:16:52;1.80;;;1.38;;
33814;SDS011;20121;51.910;8.406;2023-04-24T11:19:23;1.20;;;1.00;;
33814;SDS011;20121;51.910;8.406;2023-04-24T11:22:03;1.10;;;1.00;;
33814;SDS011;20121;51.910;8.406;2023-04-24T11:24:39;5.10;;;1.55;;
33814;SDS011;20121;51.910;8.406;2023-04-24T11:27:13;1.30;;;1.17;;
33814;SDS011;20121;51.910;8.406;2023-04-24T11:34:55;1.33;;;1.23;;
33814;SDS011;20121;51.910;8.406;2023-04-24T11:37:26;1.30;;;1.20;;
33814;SDS011;20121;51.910;8.406;2023-04-24T11:39:55;2.17;;;1.15;;
33814;SDS011;20121;51.910;8.406;2023-04-24T11:42:22;3.03;;;1.45;;
33814;SDS011;20121;51.910;8.406;2023-04-24T11:44:49;1.80;;;1.45;;
33814;SDS011;20121;51.910;8.406;2023-04-24T11:47:16;3.53;;;1.33;;
33814;SDS011;20121;51.910;8.406;2023-04-24T11:49:42;2.63;;;1.50;;
33814;SDS011;20121;51.910;8.406;2023-04-24T11:52:08;2.77;;;1.60;;
33814;SDS011;20121;51.910;8.406;2023-04-24T11:54:33;2.60;;;1.47;;
33814;SDS011;20121;51.910;8.406;2023-04-24T11:56:59;2.70;;;1.30;;
33814;SDS011;20121;51.910;8.406;2023-04-24T11:59:29;1.23;;;1.13;;
33814;SDS011;20121;51.910;8.406;2023-04-24T12:01:59;2.50;;;1.45;;
33814;SDS011;20121;51.910;8.406;2023-04-24T12:04:25;2.30;;;1.67;;
33814;SDS011;20121;51.910;8.406;2023-04-24T12:07:01;0.70;;;0.70;;
33814;SDS011;20121;51.910;8.406;2023-04-24T12:09:27;1.45;;;1.10;;
33814;SDS011;20121;51.910;8.406;2023-04-24T12:11:53;1.63;;;1.20;;
33814;SDS011;20121;51.910;8.406;2023-04-24T12:14:22;1.30;;;1.20;;
33814;SDS011;20121;51.910;8.406;2023-04-24T12:16:49;1.08;;;1.02;;
33814;SDS011;20121;51.910;8.406;2023-04-24T12:19:21;3.22;;;1.50;;
33814;SDS011;20121;51.910;8.406;2023-04-24T12:22:01;2.10;;;1.75;;
33814;SDS011;20121;51.910;8.406;2023-04-24T12:24:28;1.00;;;0.90;;
33814;SDS011;20121;51.910;8.406;2023-04-24T12:26:55;2.65;;;1.77;;
33814;SDS011;20121;51.910;8.406;2023-04-24T12:29:21;2.33;;;2.20;;
33814;SDS011;20121;51.910;8.406;2023-04-24T12:31:47;1.42;;;1.33;;
33814;SDS011;20121;51.910;8.406;2023-04-24T12:34:23;1.10;;;1.00;;
33814;SDS011;20121;51.910;8.406;2023-04-24T12:36:50;2.72;;;1.73;;
33814;SDS011;20121;51.910;8.406;2023-04-24T12:39:18;1.33;;;1.13;;
33814;SDS011;20121;51.910;8.406;2023-04-24T12:41:54;2.95;;;2.63;;
33814;SDS011;20121;51.910;8.406;2023-04-24T12:44:31;2.05;;;1.75;;
33814;SDS011;20121;51.910;8.406;2023-04-24T12:46:59;1.67;;;1.40;;
33814;SDS011;20121;51.910;8.406;2023-04-24T12:49:26;8.35;;;2.25;;
33814;SDS011;20121;51.910;8.406;2023-04-24T12:51:55;1.67;;;1.30;;
33814;SDS011;20121;51.910;8.406;2023-04-24T12:54:21;1.47;;;1.37;;
33814;SDS011;20121;51.910;8.406;2023-04-24T12:56:47;2.47;;;1.60;;
33814;SDS011;20121;51.910;8.406;2023-04-24T12:59:12;1.83;;;1.73;;
33814;SDS011;20121;51.910;8.406;2023-04-24T13:01:38;2.17;;;1.83;;
33814;SDS011;20121;51.910;8.406;2023-04-24T13:04:05;1.53;;;1.40;;
33814;SDS011;20121;51.910;8.406;2023-04-24T13:06:30;1.63;;;1.52;;
33814;SDS011;20121;51.910;8.406;2023-04-24T13:08:56;2.27;;;2.07;;
33814;SDS011;20121;51.910;8.406;2023-04-24T13:11:23;2.75;;;1.73;;
33814;SDS011;20121;51.910;8.406;2023-04-24T13:13:49;1.85;;;1.65;;
33814;SDS011;20121;51.910;8.406;2023-04-24T13:16:15;1.85;;;1.75;;
33814;SDS011;20121;51.910;8.406;2023-04-24T13:18:41;2.47;;;2.27;;
33814;SDS011;20121;51.910;8.406;2023-04-24T13:21:06;1.70;;;1.60;;
33814;SDS011;20121;51.910;8.406;2023-04-24T13:23:32;4.50;;;2.23;;
33814;SDS011;20121;51.910;8.406;2023-04-24T13:25:58;2.00;;;1.90;;
33814;SDS011;20121;51.910;8.406;2023-04-24T13:28:24;2.77;;;2.17;;
33814;SDS011;20121;51.910;8.406;2023-04-24T13:30:50;6.07;;;2.88;;
33814;SDS011;20121;51.910;8.406;2023-04-24T13:33:16;4.45;;;3.10;;
33814;SDS011;20121;51.910;8.406;2023-04-24T13:35:42;1.30;;;1.20;;
33814;SDS011;20121;51.910;8.406;2023-04-24T13:38:07;7.87;;;2.07;;
33814;SDS011;20121;51.910;8.406;2023-04-24T13:40:33;5.10;;;2.73;;
33814;SDS011;20121;51.910;8.406;2023-04-24T13:42:59;3.10;;;2.80;;
33814;SDS011;20121;51.910;8.406;2023-04-24T13:45:25;3.97;;;2.78;;
33814;SDS011;20121;51.910;8.406;2023-04-24T13:47:51;8.63;;;3.67;;
33814;SDS011;20121;51.910;8.406;2023-04-24T13:50:18;2.65;;;2.28;;
33814;SDS011;20121;51.910;8.406;2023-04-24T13:52:44;4.90;;;2.63;;
33814;SDS011;20121;51.910;8.406;2023-04-24T13:55:10;5.80;;;3.00;;
33814;SDS011;20121;51.910;8.406;2023-04-24T13:57:35;3.93;;;3.47;;
33814;SDS011;20121;51.910;8.406;2023-04-24T14:00:01;2.73;;;2.60;;
33814;SDS011;20121;51.910;8.406;2023-04-24T14:02:28;2.65;;;1.83;;
33814;SDS011;20121;51.910;8.406;2023-04-24T14:04:54;2.40;;;2.20;;
33814;SDS011;20121;51.910;8.406;2023-04-24T14:07:20;4.80;;;2.67;;
33814;SDS011;20121;51.910;8.406;2023-04-24T14:09:46;3.43;;;2.60;;
33814;SDS011;20121;51.910;8.406;2023-04-24T14:12:12;3.10;;;2.53;;
33814;SDS011;20121;51.910;8.406;2023-04-24T14:14:38;7.60;;;2.50;;
33814;SDS011;20121;51.910;8.406;2023-04-24T14:17:04;3.03;;;2.05;;
33814;SDS011;20121;51.910;8.406;2023-04-24T14:19:30;3.30;;;2.17;;
33814;SDS011;20121;51.910;8.406;2023-04-24T14:21:56;5.47;;;2.10;;
33814;SDS011;20121;51.910;8.406;2023-04-24T14:24:23;3.95;;;1.75;;
33814;SDS011;20121;51.910;8.406;2023-04-24T14:26:49;11.27;;;2.65;;
33814;SDS011;20121;51.910;8.406;2023-04-24T14:29:15;2.43;;;2.00;;
33814;SDS011;20121;51.910;8.406;2023-04-24T14:31:42;6.22;;;2.60;;
33814;SDS011;20121;51.910;8.406;2023-04-24T14:34:08;4.75;;;3.28;;
33814;SDS011;20121;51.910;8.406;2023-04-24T14:36:34;2.22;;;1.60;;
33814;SDS011;20121;51.910;8.406;2023-04-24T14:39:00;2.17;;;1.87;;
33814;SDS011;20121;51.910;8.406;2023-04-24T14:41:28;1.88;;;1.65;;
33814;SDS011;20121;51.910;8.406;2023-04-24T14:43:54;1.60;;;1.50;;
33814;SDS011;20121;51.910;8.406;2023-04-24T14:46:19;1.43;;;1.00;;
33814;SDS011;20121;51.910;8.406;2023-04-24T14:48:45;1.50;;;1.00;;
33814;SDS011;20121;51.910;8.406;2023-04-24T14:51:10;1.97;;;1.87;;
33814;SDS011;20121;51.910;8.406;2023-04-24T14:53:36;1.67;;;1.33;;